Time;durP1;ratioP1;P1;durP2;ratioP2;P2;SDS_P1;SDS_P2;PMS_P1;PMS_P2;Temp;Humidity;BMP_temperature;BMP_pressure;BME280_temperature;BME280_humidity;BME280_pressure;Samples;Min_cycle;Max_cycle;Signal;HPM_P1;HPM_P2
2021/01/17 00:01:29;;;;;;;28.60;25.63;;;0.70;99.90;;;;;;6165115;23;20183;-80
2021/01/17 00:03:57;;;;;;;26.90;24.17;;;0.80;99.90;;;;;;6166130;23;20478;-80
2021/01/17 00:06:26;;;;;;;26.77;23.20;;;0.80;99.90;;;;;;6166603;23;20416;-80
2021/01/17 00:08:54;;;;;;;29.55;24.65;;;0.80;99.90;;;;;;6165669;23;20423;-79
2021/01/17 00:11:22;;;;;;;29.53;25.97;;;0.80;99.90;;;;;;6205605;23;20180;-79
2021/01/17 00:13:49;;;;;;;29.43;26.40;;;0.80;99.90;;;;;;6165697;23;20419;-79
2021/01/17 00:16:16;;;;;;;28.63;25.00;;;0.80;99.90;;;;;;6164884;23;20407;-79
2021/01/17 00:18:46;;;;;;;27.63;23.20;;;0.80;99.90;;;;;;6164604;23;20527;-80
2021/01/17 00:21:13;;;;;;;27.00;23.30;;;0.80;99.90;;;;;;6164580;23;20415;-79
2021/01/17 00:23:40;;;;;;;28.93;25.63;;;0.80;99.90;;;;;;6165317;23;20914;-79
2021/01/17 00:26:08;;;;;;;30.70;25.10;;;0.70;99.90;;;;;;6165232;23;20407;-80
2021/01/17 00:28:36;;;;;;;29.70;26.60;;;0.70;99.90;;;;;;6165324;23;20942;-79
2021/01/17 00:31:04;;;;;;;27.90;24.77;;;0.70;99.90;;;;;;6202604;23;20407;-79
2021/01/17 00:33:31;;;;;;;27.73;23.33;;;0.70;99.90;;;;;;6166101;23;20744;-80
2021/01/17 00:35:59;;;;;;;30.57;25.40;;;0.70;99.90;;;;;;6166822;23;20423;-80
2021/01/17 00:38:28;;;;;;;31.53;28.23;;;0.70;99.90;;;;;;6166888;23;20819;-79
2021/01/17 00:40:58;;;;;;;29.87;26.33;;;0.70;99.90;;;;;;6202761;23;20450;-79
2021/01/17 00:43:25;;;;;;;30.30;27.20;;;0.70;99.90;;;;;;6166282;23;20431;-80
2021/01/17 00:45:54;;;;;;;30.07;26.10;;;0.70;99.90;;;;;;6166141;23;20740;-79
2021/01/17 00:48:24;;;;;;;30.50;24.67;;;0.70;99.90;;;;;;6163602;23;20453;-79
2021/01/17 00:50:52;;;;;;;30.30;25.07;;;0.70;99.90;;;;;;6165499;23;20754;-79
2021/01/17 00:53:20;;;;;;;31.43;27.70;;;0.70;99.90;;;;;;6171296;23;20409;-79
2021/01/17 00:55:48;;;;;;;28.73;24.10;;;0.70;99.90;;;;;;6167476;23;20442;-80
2021/01/17 00:58:23;;;;;;;31.07;24.90;;;0.70;99.90;;;;;;6168775;23;20439;-79
2021/01/17 01:00:55;;;;;;;32.73;26.93;;;0.70;99.90;;;;;;6165186;23;20434;-79
2021/01/17 01:03:30;;;;;;;29.10;25.30;;;0.70;99.90;;;;;;6164795;23;20727;-79
2021/01/17 01:05:57;;;;;;;34.10;24.37;;;0.60;99.90;;;;;;6201254;23;20407;-79
2021/01/17 01:08:24;;;;;;;29.57;26.57;;;0.70;99.90;;;;;;6165015;23;20997;-79
2021/01/17 01:10:51;;;;;;;31.13;27.83;;;0.60;99.90;;;;;;6201496;23;20457;-79
2021/01/17 01:13:19;;;;;;;29.90;24.57;;;0.70;99.90;;;;;;6165748;23;20423;-79
2021/01/17 01:15:46;;;;;;;28.27;22.10;;;0.70;99.90;;;;;;6201143;23;20427;-79
2021/01/17 01:18:14;;;;;;;28.63;24.00;;;0.70;99.90;;;;;;6164280;23;20756;-79
2021/01/17 01:20:42;;;;;;;31.30;27.80;;;0.60;99.90;;;;;;6165367;23;20515;-79
2021/01/17 01:23:09;;;;;;;29.63;24.93;;;0.70;99.90;;;;;;6202040;23;20400;-79
2021/01/17 01:25:36;;;;;;;31.97;25.57;;;0.70;99.90;;;;;;6165058;23;20965;-79
2021/01/17 01:28:04;;;;;;;30.30;24.23;;;0.70;99.90;;;;;;6164784;23;20531;-79
2021/01/17 01:30:31;;;;;;;30.20;25.60;;;0.70;99.90;;;;;;6165157;23;20482;-79
2021/01/17 01:33:03;;;;;;;32.53;25.20;;;0.70;99.90;;;;;;6165667;23;20494;-79
2021/01/17 01:35:31;;;;;;;30.03;25.13;;;0.70;99.90;;;;;;6169834;23;20418;-79
2021/01/17 01:37:58;;;;;;;28.70;25.60;;;0.70;99.90;;;;;;6169891;23;20411;-80
2021/01/17 01:40:25;;;;;;;29.90;23.60;;;0.70;99.90;;;;;;6207263;23;20450;-79
2021/01/17 01:42:53;;;;;;;29.33;26.23;;;0.70;99.90;;;;;;6170722;23;20423;-79
2021/01/17 01:45:20;;;;;;;29.83;24.37;;;0.70;99.90;;;;;;6170565;23;20415;-79
2021/01/17 01:47:47;;;;;;;29.33;25.43;;;0.70;99.90;;;;;;6201259;23;20403;-79
2021/01/17 01:50:15;;;;;;;27.70;23.77;;;0.70;99.90;;;;;;6200251;23;20415;-79
2021/01/17 01:52:45;;;;;;;28.33;24.57;;;0.70;99.90;;;;;;6201474;23;20422;-79
2021/01/17 01:55:13;;;;;;;29.83;26.63;;;0.60;99.90;;;;;;6164657;23;20423;-79
2021/01/17 01:57:41;;;;;;;31.10;25.07;;;0.60;99.90;;;;;;6165092;23;20423;-79
2021/01/17 02:00:10;;;;;;;28.97;24.53;;;0.60;99.90;;;;;;6164886;23;20493;-79
2021/01/17 02:02:42;;;;;;;28.60;24.33;;;0.60;99.90;;;;;;6164296;23;20423;-79
2021/01/17 02:05:11;;;;;;;29.17;23.87;;;0.60;99.90;;;;;;6164690;23;20443;-79
2021/01/17 02:08:05;;;;;;;28.60;25.63;;;0.60;99.90;;;;;;6164763;23;20423;-79
2021/01/17 02:10:32;;;;;;;29.17;25.40;;;0.60;99.90;;;;;;6200901;23;20430;-79
2021/01/17 02:13:07;;;;;;;27.10;22.80;;;0.60;99.90;;;;;;6164976;23;20436;-79
2021/01/17 02:15:36;;;;;;;29.80;22.90;;;0.60;99.90;;;;;;6201108;23;20383;-79
2021/01/17 02:18:05;;;;;;;28.37;25.47;;;0.60;99.90;;;;;;6164428;23;20472;-80
2021/01/17 02:20:36;;;;;;;26.63;23.37;;;0.60;99.90;;;;;;6165537;23;20818;-80
2021/01/17 02:23:10;;;;;;;30.53;25.60;;;0.60;99.90;;;;;;6165332;23;20455;-79
2021/01/17 02:25:39;;;;;;;31.50;25.63;;;0.60;99.90;;;;;;6165242;23;20457;-79
2021/01/17 02:28:09;;;;;;;29.43;25.73;;;0.60;99.90;;;;;;6165048;23;20868;-79
2021/01/17 02:30:45;;;;;;;28.07;25.00;;;0.60;99.90;;;;;;6164518;23;20485;-80
2021/01/17 02:33:16;;;;;;;30.57;27.33;;;0.60;99.90;;;;;;6165869;23;20489;-79
2021/01/17 02:35:46;;;;;;;31.40;25.80;;;0.60;99.90;;;;;;6202915;23;20383;-79
2021/01/17 02:38:27;;;;;;;32.67;28.10;;;0.60;99.90;;;;;;6165828;23;20488;-79
2021/01/17 02:41:07;;;;;;;32.67;24.70;;;0.60;99.90;;;;;;6165024;23;20450;-79
2021/01/17 02:43:35;;;;;;;28.90;24.03;;;0.60;99.90;;;;;;6203761;23;20515;-79
2021/01/17 02:46:02;;;;;;;27.40;22.33;;;0.60;99.90;;;;;;6205035;23;20381;-79
2021/01/17 02:48:29;;;;;;;30.20;24.50;;;0.60;99.90;;;;;;6170012;23;20519;-79
2021/01/17 02:50:57;;;;;;;28.43;24.07;;;0.60;99.90;;;;;;6170395;23;20442;-79
2021/01/17 02:53:28;;;;;;;29.50;23.10;;;0.50;99.90;;;;;;6205424;23;20743;-79
2021/01/17 02:56:00;;;;;;;28.97;25.83;;;0.60;99.90;;;;;;6162554;23;20411;-79
2021/01/17 02:58:28;;;;;;;27.63;23.13;;;0.60;99.90;;;;;;6162082;23;20462;-79
2021/01/17 03:00:57;;;;;;;29.57;24.70;;;0.60;99.90;;;;;;6162814;23;20412;-79
2021/01/17 03:03:31;;;;;;;30.57;23.10;;;0.50;99.90;;;;;;6163068;23;20754;-79
2021/01/17 03:06:00;;;;;;;26.70;23.80;;;0.60;99.90;;;;;;6198763;23;20771;-79
2021/01/17 03:08:28;;;;;;;26.80;23.10;;;0.60;99.90;;;;;;6160870;23;20444;-78
2021/01/17 03:10:56;;;;;;;28.73;22.40;;;0.60;99.90;;;;;;6162460;23;20411;-78
2021/01/17 03:13:24;;;;;;;29.87;24.60;;;0.60;99.90;;;;;;6170265;23;20906;-79
2021/01/17 03:15:51;;;;;;;29.17;23.20;;;0.60;99.90;;;;;;6200157;23;20450;-79
2021/01/17 03:18:19;;;;;;;27.50;24.50;;;0.60;99.90;;;;;;6200033;23;20416;-79
2021/01/17 03:20:46;;;;;;;27.33;23.43;;;0.60;99.90;;;;;;6163978;23;20496;-79
2021/01/17 03:23:14;;;;;;;34.53;24.70;;;0.60;99.90;;;;;;6200296;23;20764;-79
2021/01/17 03:25:41;;;;;;;29.00;22.70;;;0.60;99.90;;;;;;6163282;23;20466;-79
2021/01/17 03:28:09;;;;;;;28.67;23.00;;;0.60;99.90;;;;;;6199921;23;20407;-79
2021/01/17 03:30:36;;;;;;;28.43;25.43;;;0.60;99.90;;;;;;6163282;23;20430;-79
2021/01/17 03:33:04;;;;;;;28.17;24.13;;;0.60;99.90;;;;;;6163669;23;20427;-79
2021/01/17 03:35:31;;;;;;;29.57;24.37;;;0.60;99.90;;;;;;6163620;23;20421;-79
2021/01/17 03:37:58;;;;;;;27.67;24.77;;;0.60;99.90;;;;;;6200271;23;20926;-79
2021/01/17 03:40:26;;;;;;;28.70;24.10;;;0.60;99.90;;;;;;6164261;23;20938;-79
2021/01/17 03:42:53;;;;;;;25.27;22.07;;;0.60;99.90;;;;;;6164229;23;20772;-79
2021/01/17 03:45:21;;;;;;;30.33;27.20;;;0.50;99.90;;;;;;6163637;23;20419;-79
2021/01/17 03:47:52;;;;;;;28.80;21.73;;;0.60;99.90;;;;;;6163998;23;20438;-79
2021/01/17 03:50:19;;;;;;;27.70;24.20;;;0.60;99.90;;;;;;6200069;23;20438;-78
2021/01/17 03:52:46;;;;;;;26.83;21.77;;;0.50;99.90;;;;;;6163871;23;20419;-78
2021/01/17 03:55:14;;;;;;;26.37;23.67;;;0.60;99.90;;;;;;6200901;23;20943;-79
2021/01/17 03:57:41;;;;;;;27.87;24.90;;;0.60;99.90;;;;;;6163495;23;20423;-79
2021/01/17 04:00:09;;;;;;;25.83;22.27;;;0.60;99.90;;;;;;6164196;23;21086;-79
2021/01/17 04:02:41;;;;;;;26.47;22.20;;;0.60;99.90;;;;;;6163948;23;20435;-79
2021/01/17 04:05:10;;;;;;;25.63;21.93;;;0.50;99.90;;;;;;6164467;23;20415;-79
2021/01/17 04:07:37;;;;;;;28.10;22.00;;;0.50;99.90;;;;;;6166249;23;20415;-79
2021/01/17 04:10:05;;;;;;;26.13;21.90;;;0.50;99.90;;;;;;6164780;23;20826;-80
2021/01/17 04:12:33;;;;;;;26.47;23.67;;;0.50;99.90;;;;;;6201824;23;20450;-79
2021/01/17 04:15:00;;;;;;;27.57;22.50;;;0.50;99.90;;;;;;6201597;23;20822;-79
2021/01/17 04:17:27;;;;;;;24.73;19.97;;;0.50;99.90;;;;;;6165551;23;20478;-79
2021/01/17 04:19:58;;;;;;;25.60;21.97;;;0.50;99.90;;;;;;6165004;23;20427;-79
2021/01/17 04:22:26;;;;;;;27.47;21.10;;;0.60;99.90;;;;;;6201652;23;20403;-79
2021/01/17 04:24:53;;;;;;;25.70;22.27;;;0.50;99.90;;;;;;6201669;23;20879;-79
2021/01/17 04:27:20;;;;;;;24.57;21.40;;;0.50;99.90;;;;;;6165123;23;20418;-79
2021/01/17 04:29:47;;;;;;;26.33;23.60;;;0.50;99.90;;;;;;6165597;23;20501;-79
2021/01/17 04:32:14;;;;;;;24.43;20.03;;;0.50;99.90;;;;;;6201888;23;20403;-79
2021/01/17 04:34:42;;;;;;;26.13;22.10;;;0.60;99.90;;;;;;6164682;23;20443;-79
2021/01/17 04:37:10;;;;;;;26.03;21.83;;;0.50;99.90;;;;;;6164400;23;20403;-79
2021/01/17 04:39:37;;;;;;;24.07;20.37;;;0.50;99.90;;;;;;6164621;23;20522;-79
2021/01/17 04:42:08;;;;;;;31.17;26.97;;;0.50;99.90;;;;;;6201834;23;20403;-79
2021/01/17 04:44:39;;;;;;;33.00;25.50;;;0.50;99.90;;;;;;6164654;23;20467;-80
2021/01/17 04:47:07;;;;;;;32.00;24.83;;;0.50;99.90;;;;;;6164595;23;20871;-79
2021/01/17 04:49:38;;;;;;;34.83;27.73;;;0.50;99.90;;;;;;6164321;23;20918;-79
2021/01/17 04:52:08;;;;;;;28.90;23.40;;;0.50;99.90;;;;;;6165196;23;20408;-79
2021/01/17 04:54:37;;;;;;;31.10;27.70;;;0.50;99.90;;;;;;6164744;23;20415;-79
2021/01/17 04:57:08;;;;;;;29.80;26.60;;;0.50;99.90;;;;;;6164715;23;20439;-79
2021/01/17 04:59:39;;;;;;;27.07;23.83;;;0.50;99.90;;;;;;6164883;23;20431;-79
2021/01/17 05:02:23;;;;;;;29.93;25.77;;;0.50;99.90;;;;;;6200815;23;20403;-79
2021/01/17 05:05:18;;;;;;;28.83;23.10;;;0.50;99.90;;;;;;6165215;23;20779;-79
2021/01/17 05:08:20;;;;;;;31.60;26.03;;;0.50;99.90;;;;;;6201096;23;20902;-79
2021/01/17 05:11:00;;;;;;;28.87;23.20;;;0.50;99.90;;;;;;6129265;23;20414;-79
2021/01/17 05:13:35;;;;;;;29.33;23.87;;;0.50;99.90;;;;;;6165063;23;20787;-79
2021/01/17 05:16:06;;;;;;;27.73;24.70;;;0.50;99.90;;;;;;6164556;23;20478;-79
2021/01/17 05:18:34;;;;;;;30.83;24.10;;;0.50;99.90;;;;;;6164374;23;20435;-79
2021/01/17 05:21:04;;;;;;;29.70;25.13;;;0.50;99.90;;;;;;6164983;23;20451;-79
2021/01/17 05:23:33;;;;;;;28.60;23.90;;;0.50;99.90;;;;;;6164517;23;20424;-79
2021/01/17 05:26:04;;;;;;;29.03;23.97;;;0.50;99.90;;;;;;6165507;23;20423;-79
2021/01/17 05:28:33;;;;;;;29.53;21.73;;;0.50;99.90;;;;;;6164106;23;20475;-79
2021/01/17 05:31:00;;;;;;;30.13;24.10;;;0.50;99.90;;;;;;6201172;23;20411;-79
2021/01/17 05:33:30;;;;;;;27.87;22.90;;;0.50;99.90;;;;;;6164730;23;20489;-79
2021/01/17 05:35:58;;;;;;;24.90;20.70;;;0.50;99.90;;;;;;6165174;23;20422;-79
2021/01/17 05:38:26;;;;;;;28.30;25.40;;;0.50;99.90;;;;;;6165455;23;20273;-79
2021/01/17 05:40:54;;;;;;;24.73;21.50;;;0.50;99.90;;;;;;6165559;23;20416;-79
2021/01/17 05:43:22;;;;;;;26.67;21.57;;;0.50;99.90;;;;;;6201609;23;20476;-79
2021/01/17 05:45:49;;;;;;;25.40;20.90;;;0.50;99.90;;;;;;6165897;23;20416;-79
2021/01/17 05:48:16;;;;;;;25.87;23.07;;;0.50;99.90;;;;;;6164925;23;20510;-79
2021/01/17 05:50:45;;;;;;;25.73;20.73;;;0.50;99.90;;;;;;6166174;23;20415;-79
2021/01/17 05:53:12;;;;;;;24.70;19.77;;;0.50;99.90;;;;;;6168872;23;20883;-79
2021/01/17 05:55:41;;;;;;;23.53;19.73;;;0.50;99.90;;;;;;6167938;23;20789;-79
2021/01/17 05:58:23;;;;;;;24.37;20.50;;;0.50;99.90;;;;;;6164302;23;20443;-79
2021/01/17 06:00:52;;;;;;;24.20;19.70;;;0.50;99.90;;;;;;6164167;23;20471;-79
2021/01/17 06:03:21;;;;;;;24.03;19.30;;;0.50;99.90;;;;;;6163966;23;20477;-79
2021/01/17 06:05:50;;;;;;;24.27;19.63;;;0.50;99.90;;;;;;6163721;23;20439;-79
2021/01/17 06:08:19;;;;;;;25.17;20.93;;;0.50;99.90;;;;;;6200261;23;20426;-79
2021/01/17 06:10:47;;;;;;;23.43;19.70;;;0.50;99.90;;;;;;6200039;23;20918;-79
2021/01/17 06:13:23;;;;;;;23.30;20.73;;;0.50;99.90;;;;;;6200011;23;20404;-79
2021/01/17 06:15:51;;;;;;;22.80;18.07;;;0.50;99.90;;;;;;6200352;23;20391;-79
2021/01/17 06:18:23;;;;;;;24.40;21.80;;;0.50;99.90;;;;;;6163356;23;20439;-79
2021/01/17 06:21:00;;;;;;;24.80;19.50;;;0.50;99.90;;;;;;6200755;23;20399;-79
2021/01/17 06:23:34;;;;;;;22.00;18.00;;;0.50;99.90;;;;;;6164167;23;20407;-79
2021/01/17 06:26:05;;;;;;;20.47;17.87;;;0.40;99.90;;;;;;6163484;23;20486;-79
2021/01/17 06:28:40;;;;;;;22.90;18.30;;;0.50;99.90;;;;;;6199468;23;20420;-79
2021/01/17 06:31:09;;;;;;;20.37;18.10;;;0.40;99.90;;;;;;6163405;23;20517;-79
2021/01/17 06:33:36;;;;;;;21.13;17.17;;;0.50;99.90;;;;;;6163873;23;20510;-79
2021/01/17 06:36:11;;;;;;;22.00;19.67;;;0.40;99.90;;;;;;6164052;23;20415;-79
2021/01/17 06:38:38;;;;;;;20.67;16.67;;;0.40;99.90;;;;;;6163756;23;20443;-79
2021/01/17 06:41:07;;;;;;;20.43;18.23;;;0.40;99.90;;;;;;6190317;23;20415;-79
2021/01/17 06:43:42;;;;;;;21.60;17.37;;;0.50;99.90;;;;;;6164069;23;20735;-79
2021/01/17 06:46:11;;;;;;;23.87;16.80;;;0.50;99.90;;;;;;6163668;23;20418;-79
2021/01/17 06:48:38;;;;;;;22.17;18.97;;;0.40;99.90;;;;;;6163568;23;20926;-79
2021/01/17 06:51:19;;;;;;;21.80;18.27;;;0.40;99.90;;;;;;6201026;23;20391;-79
2021/01/17 06:53:53;;;;;;;21.47;16.80;;;0.40;99.90;;;;;;6200477;23;20403;-79
2021/01/17 06:56:21;;;;;;;20.10;18.00;;;0.40;99.90;;;;;;6200702;23;20706;-79
2021/01/17 06:58:53;;;;;;;20.37;17.40;;;0.40;99.90;;;;;;6163432;23;20473;-79
2021/01/17 07:01:27;;;;;;;22.23;18.60;;;0.40;99.90;;;;;;6163302;23;20781;-79
2021/01/17 07:04:16;;;;;;;20.77;16.07;;;0.40;99.90;;;;;;6199431;23;20375;-79
2021/01/17 07:07:16;;;;;;;20.53;16.93;;;0.40;99.90;;;;;;6164141;23;20403;-79
2021/01/17 07:09:49;;;;;;;21.57;17.80;;;0.40;99.90;;;;;;6200072;23;20432;-79
2021/01/17 07:12:34;;;;;;;18.73;15.60;;;0.40;99.90;;;;;;6163934;23;20411;-79
2021/01/17 07:15:06;;;;;;;20.63;15.27;;;0.40;99.90;;;;;;6163789;23;20422;-79
2021/01/17 07:17:35;;;;;;;21.83;17.77;;;0.40;99.90;;;;;;6164194;23;20458;-79
2021/01/17 07:20:08;;;;;;;21.53;17.97;;;0.30;99.90;;;;;;6164149;23;20952;-79
2021/01/17 07:22:36;;;;;;;21.20;16.90;;;0.30;99.90;;;;;;6200645;23;20380;-79
2021/01/17 07:25:06;;;;;;;20.13;15.87;;;0.30;99.90;;;;;;6165031;23;20427;-79
2021/01/17 07:28:03;;;;;;;19.73;16.27;;;0.30;99.90;;;;;;6200367;23;20854;-79
2021/01/17 07:30:47;;;;;;;19.13;16.60;;;0.30;99.90;;;;;;6163035;23;20775;-79
2021/01/17 07:33:17;;;;;;;22.17;16.50;;;0.30;99.90;;;;;;6163330;23;20410;-79
2021/01/17 07:35:46;;;;;;;23.10;16.30;;;0.30;99.90;;;;;;6163235;23;20839;-79
2021/01/17 07:38:15;;;;;;;20.40;16.57;;;0.30;99.90;;;;;;6162870;23;20419;-79
2021/01/17 07:40:52;;;;;;;20.73;18.20;;;0.30;99.90;;;;;;6164828;23;20899;-79
2021/01/17 07:43:28;;;;;;;21.57;17.10;;;0.30;99.90;;;;;;6164939;23;20419;-79
2021/01/17 07:45:58;;;;;;;22.20;17.00;;;0.30;99.90;;;;;;6165004;23;20465;-79
2021/01/17 07:48:26;;;;;;;20.37;15.77;;;0.30;99.90;;;;;;6165205;23;20458;-79
2021/01/17 07:50:54;;;;;;;19.70;16.20;;;0.30;99.90;;;;;;6164798;23;20431;-79
2021/01/17 07:53:41;;;;;;;25.50;19.07;;;0.30;99.90;;;;;;6202105;23;20400;-79
2021/01/17 07:56:11;;;;;;;25.50;20.60;;;0.30;99.90;;;;;;6165693;23;20436;-79
2021/01/17 07:58:43;;;;;;;23.97;18.77;;;0.30;99.90;;;;;;6165405;23;20428;-79
2021/01/17 08:01:46;;;;;;;28.10;22.23;;;0.30;99.90;;;;;;6165243;23;20454;-79
2021/01/17 08:04:47;;;;;;;22.33;17.60;;;0.40;99.90;;;;;;6163697;23;20410;-79
2021/01/17 08:07:30;;;;;;;22.80;16.83;;;0.40;99.90;;;;;;6131461;23;20419;-79
2021/01/17 08:09:59;;;;;;;23.37;19.50;;;0.30;99.90;;;;;;6166184;23;20443;-79
2021/01/17 08:12:34;;;;;;;22.70;17.53;;;0.30;99.90;;;;;;6167241;23;20415;-79
2021/01/17 08:15:18;;;;;;;27.27;20.43;;;0.40;99.90;;;;;;6200061;23;20379;-79
2021/01/17 08:17:46;;;;;;;24.07;19.07;;;0.40;99.90;;;;;;6164200;23;20415;-80
2021/01/17 08:20:27;;;;;;;23.47;20.87;;;0.40;99.90;;;;;;6162748;23;20918;-80
2021/01/17 08:23:18;;;;;;;25.60;20.10;;;0.40;99.90;;;;;;6200070;23;20380;-80
2021/01/17 08:25:58;;;;;;;22.83;18.10;;;0.40;99.90;;;;;;6199675;23;20384;-80
2021/01/17 08:28:58;;;;;;;24.30;20.10;;;0.40;99.90;;;;;;6199909;23;20415;-80
2021/01/17 08:31:42;;;;;;;24.63;20.50;;;0.40;99.90;;;;;;6200217;23;20435;-79
2021/01/17 08:34:16;;;;;;;22.73;18.80;;;0.40;99.90;;;;;;6164312;23;20462;-80
2021/01/17 08:36:45;;;;;;;23.53;19.43;;;0.50;99.90;;;;;;6164481;23;20421;-80
2021/01/17 08:39:12;;;;;;;25.57;21.47;;;0.50;99.90;;;;;;6165189;23;20431;-80
2021/01/17 08:41:45;;;;;;;24.27;18.20;;;0.50;99.90;;;;;;6201010;23;20412;-79
2021/01/17 08:44:15;;;;;;;25.67;21.53;;;0.50;99.90;;;;;;6163036;23;20415;-79
2021/01/17 08:46:43;;;;;;;26.50;20.87;;;0.60;99.90;;;;;;6163083;23;20431;-79
2021/01/17 08:49:11;;;;;;;26.97;23.33;;;0.60;99.90;;;;;;6162537;23;20943;-79
2021/01/17 08:51:40;;;;;;;26.30;20.27;;;0.60;99.90;;;;;;6205571;23;20376;-80
2021/01/17 08:54:28;;;;;;;29.67;22.30;;;0.60;99.90;;;;;;6207508;23;20388;-80
2021/01/17 08:56:56;;;;;;;26.57;20.90;;;0.60;99.90;;;;;;6171102;23;20408;-80
2021/01/17 08:59:34;;;;;;;27.67;22.70;;;0.60;99.90;;;;;;6211000;23;20412;-79
2021/01/17 09:02:01;;;;;;;27.60;21.20;;;0.60;99.90;;;;;;6167105;23;20415;-79
2021/01/17 09:04:30;;;;;;;26.23;21.40;;;0.60;99.90;;;;;;6163828;23;20789;-79
2021/01/17 09:06:58;;;;;;;27.33;21.93;;;0.60;99.90;;;;;;6167077;23;20435;-79
2021/01/17 09:09:26;;;;;;;30.30;22.43;;;0.70;99.90;;;;;;6175312;23;20436;-79
2021/01/17 09:11:53;;;;;;;27.60;22.90;;;0.70;99.90;;;;;;6207740;23;20396;-79
2021/01/17 09:14:26;;;;;;;29.07;21.20;;;0.70;99.90;;;;;;6206132;23;20435;-80
2021/01/17 09:16:56;;;;;;;28.10;21.83;;;0.70;99.90;;;;;;6170348;23;20404;-79
2021/01/17 09:19:26;;;;;;;30.87;23.70;;;0.70;99.90;;;;;;6205797;23;20418;-79
2021/01/17 09:21:54;;;;;;;31.47;25.40;;;0.70;99.90;;;;;;6168934;23;20483;-79
2021/01/17 09:24:24;;;;;;;31.17;23.40;;;0.70;99.90;;;;;;6169208;23;20439;-79
2021/01/17 09:26:53;;;;;;;32.67;22.70;;;0.80;99.90;;;;;;6206947;23;20384;-79
2021/01/17 09:29:29;;;;;;;33.20;25.20;;;0.80;99.90;;;;;;6173053;23;20439;-79
2021/01/17 09:31:59;;;;;;;32.70;26.03;;;0.80;99.90;;;;;;6172251;23;20797;-79
2021/01/17 09:34:30;;;;;;;31.67;24.80;;;0.80;99.90;;;;;;6173280;23;20963;-79
2021/01/17 09:37:00;;;;;;;28.90;24.40;;;0.80;99.90;;;;;;6167057;23;20467;-79
2021/01/17 09:39:38;;;;;;;32.10;25.00;;;0.80;99.90;;;;;;6199488;23;20418;-79
2021/01/17 09:42:09;;;;;;;29.90;22.60;;;0.80;99.90;;;;;;6162896;23;20414;-79
2021/01/17 09:44:37;;;;;;;29.97;24.00;;;0.80;99.90;;;;;;6162985;23;20408;-79
2021/01/17 09:47:15;;;;;;;31.47;24.00;;;0.80;99.90;;;;;;6162540;23;20418;-79
2021/01/17 09:49:43;;;;;;;29.33;22.73;;;0.90;99.90;;;;;;6198864;23;20427;-79
2021/01/17 09:52:17;;;;;;;31.07;24.33;;;0.90;99.90;;;;;;6162864;23;20411;-79
2021/01/17 09:54:51;;;;;;;33.50;24.70;;;0.90;99.90;;;;;;6162687;23;20860;-79
2021/01/17 09:57:22;;;;;;;35.87;27.80;;;0.90;99.90;;;;;;6162237;23;20414;-80
2021/01/17 09:59:51;;;;;;;32.63;25.10;;;0.90;99.90;;;;;;6161746;23;20477;-79
2021/01/17 10:02:19;;;;;;;31.40;26.10;;;0.90;99.90;;;;;;6197708;23;20391;-79
2021/01/17 10:04:47;;;;;;;34.13;24.70;;;0.90;99.90;;;;;;6162205;23;20411;-79
2021/01/17 10:07:17;;;;;;;31.90;24.70;;;0.90;99.90;;;;;;6161826;23;20431;-80
2021/01/17 10:09:44;;;;;;;32.43;25.17;;;0.90;99.90;;;;;;6162028;23;20494;-79
2021/01/17 10:12:13;;;;;;;32.07;25.50;;;0.90;99.90;;;;;;6198665;23;20399;-79
2021/01/17 10:14:41;;;;;;;29.50;24.00;;;0.90;99.90;;;;;;6162788;23;20415;-79
2021/01/17 10:17:10;;;;;;;29.43;23.17;;;1.00;99.90;;;;;;6163020;23;20430;-79
2021/01/17 10:19:40;;;;;;;31.50;24.90;;;1.00;99.90;;;;;;6162940;23;20439;-79
2021/01/17 10:22:11;;;;;;;31.83;25.30;;;0.90;99.90;;;;;;6161915;23;20411;-79
2021/01/17 10:24:38;;;;;;;32.43;24.60;;;1.00;99.90;;;;;;6162170;23;20872;-79
2021/01/17 10:27:08;;;;;;;29.60;24.00;;;1.00;99.90;;;;;;6198428;23;20400;-80
2021/01/17 10:29:38;;;;;;;30.03;23.10;;;1.00;99.90;;;;;;6160766;23;20824;-79
2021/01/17 10:32:07;;;;;;;30.10;24.50;;;1.00;99.90;;;;;;6198107;23;20403;-79
2021/01/17 10:34:38;;;;;;;30.47;25.63;;;1.10;99.90;;;;;;6198397;23;20408;-79
2021/01/17 10:37:07;;;;;;;33.17;25.80;;;1.00;99.90;;;;;;6197679;23;20380;-78
2021/01/17 10:39:48;;;;;;;32.60;24.97;;;1.10;99.90;;;;;;6161354;23;20507;-79
2021/01/17 10:42:24;;;;;;;35.23;28.07;;;1.10;99.90;;;;;;6161111;23;20408;-79
2021/01/17 10:44:56;;;;;;;30.50;25.63;;;1.10;99.90;;;;;;6197567;23;20395;-79
2021/01/17 10:47:41;;;;;;;31.97;25.60;;;1.10;99.90;;;;;;6161316;23;20404;-79
2021/01/17 10:50:11;;;;;;;31.50;25.83;;;1.20;99.90;;;;;;6160178;23;20518;-79
2021/01/17 10:52:42;;;;;;;30.50;24.67;;;1.20;99.90;;;;;;6160432;23;20413;-79
2021/01/17 10:55:15;;;;;;;31.13;26.20;;;1.20;99.90;;;;;;6197609;23;20472;-78
2021/01/17 10:57:43;;;;;;;30.57;26.10;;;1.30;99.90;;;;;;6197770;23;20387;-78
2021/01/17 11:00:13;;;;;;;30.70;24.27;;;1.30;99.90;;;;;;6197483;23;20496;-79
2021/01/17 11:02:40;;;;;;;29.03;23.87;;;1.30;99.90;;;;;;6197550;23;20769;-79
2021/01/17 11:05:08;;;;;;;30.07;24.97;;;1.30;99.90;;;;;;6160813;23;20485;-79
2021/01/17 11:07:36;;;;;;;28.87;25.20;;;1.30;99.90;;;;;;6161256;23;20408;-79
2021/01/17 11:10:14;;;;;;;32.00;27.10;;;1.40;99.90;;;;;;6161771;23;20436;-79
2021/01/17 11:12:42;;;;;;;33.27;29.37;;;1.40;99.90;;;;;;6197212;23;20387;-79
2021/01/17 11:15:15;;;;;;;33.40;27.20;;;1.40;99.90;;;;;;6164136;23;20814;-79
2021/01/17 11:17:59;;;;;;;29.63;25.33;;;1.40;99.90;;;;;;6165026;23;20817;-79
2021/01/17 11:20:28;;;;;;;28.90;25.40;;;1.40;99.90;;;;;;6200878;23;20380;-79
2021/01/17 11:23:04;;;;;;;32.30;26.63;;;1.40;99.90;;;;;;6200668;23;20391;-79
2021/01/17 11:25:32;;;;;;;38.27;31.30;;;1.50;99.90;;;;;;6201143;23;20871;-79
2021/01/17 11:28:02;;;;;;;31.87;25.83;;;1.50;99.90;;;;;;6164679;23;20450;-79
2021/01/17 11:30:32;;;;;;;31.77;26.23;;;1.50;99.90;;;;;;6164834;23;20444;-79
2021/01/17 11:33:10;;;;;;;32.63;28.03;;;1.50;99.90;;;;;;6201112;23;20387;-79
2021/01/17 11:35:38;;;;;;;34.23;27.67;;;1.60;99.90;;;;;;6201161;23;20401;-79
2021/01/17 11:38:07;;;;;;;32.23;27.17;;;1.60;99.90;;;;;;6174188;23;20412;-79
2021/01/17 11:40:35;;;;;;;31.93;26.27;;;1.60;99.90;;;;;;6175341;23;20416;-79
2021/01/17 11:43:08;;;;;;;32.10;27.80;;;1.60;99.90;;;;;;6211902;23;20396;-79
2021/01/17 11:45:41;;;;;;;34.90;28.17;;;1.60;99.90;;;;;;6211996;23;20399;-79
2021/01/17 11:48:09;;;;;;;32.80;27.53;;;1.60;99.90;;;;;;6175251;23;20411;-79
2021/01/17 11:50:41;;;;;;;36.20;30.10;;;1.60;99.90;;;;;;6175269;23;20502;-79
2021/01/17 11:53:10;;;;;;;33.70;28.53;;;1.60;99.90;;;;;;6173205;23;20466;-79
2021/01/17 11:55:37;;;;;;;32.93;26.70;;;1.60;99.90;;;;;;6211604;23;20396;-79
2021/01/17 11:58:13;;;;;;;33.17;29.57;;;1.60;99.90;;;;;;6174164;23;20420;-79
2021/01/17 12:00:50;;;;;;;34.60;30.30;;;1.60;99.90;;;;;;6174777;23;20423;-79
2021/01/17 12:03:30;;;;;;;33.90;29.10;;;1.60;99.90;;;;;;6174929;23;20404;-79
2021/01/17 12:05:59;;;;;;;31.50;28.07;;;1.60;99.90;;;;;;6175621;23;20449;-79
2021/01/17 12:08:26;;;;;;;33.37;28.77;;;1.70;99.90;;;;;;6176141;23;20432;-79
2021/01/17 12:10:54;;;;;;;32.97;28.20;;;1.70;99.90;;;;;;6176119;23;20516;-79
2021/01/17 12:13:21;;;;;;;33.87;28.13;;;1.80;99.90;;;;;;6213496;23;20472;-79
2021/01/17 12:15:50;;;;;;;35.30;30.23;;;1.70;99.90;;;;;;6175739;23;20419;-79
2021/01/17 12:18:17;;;;;;;33.67;29.20;;;1.70;99.90;;;;;;6175492;23;21059;-79
2021/01/17 12:20:44;;;;;;;33.77;27.67;;;1.70;99.90;;;;;;6175852;23;20439;-79
2021/01/17 12:23:13;;;;;;;37.73;33.03;;;1.70;99.90;;;;;;6175840;23;20417;-79
2021/01/17 12:25:40;;;;;;;34.30;28.77;;;1.70;99.90;;;;;;6175328;23;20412;-79
2021/01/17 12:28:07;;;;;;;35.80;30.63;;;1.80;99.90;;;;;;6211404;23;20388;-79
2021/01/17 12:30:34;;;;;;;32.23;28.73;;;1.80;99.90;;;;;;6209815;23;20522;-79
2021/01/17 12:33:03;;;;;;;36.57;30.67;;;1.80;99.90;;;;;;6173765;23;20427;-79
2021/01/17 12:35:30;;;;;;;35.03;30.80;;;1.80;99.90;;;;;;6209092;23;20435;-79
2021/01/17 12:37:59;;;;;;;35.37;29.93;;;1.80;99.90;;;;;;6171788;23;20481;-79
2021/01/17 12:40:26;;;;;;;35.37;30.27;;;1.80;99.90;;;;;;6173281;23;20412;-79
2021/01/17 12:42:54;;;;;;;35.00;29.47;;;1.80;99.90;;;;;;6173131;23;20725;-79
2021/01/17 12:45:21;;;;;;;34.60;29.33;;;1.80;99.90;;;;;;6173190;23;20427;-79
2021/01/17 12:47:48;;;;;;;35.50;31.53;;;1.80;99.90;;;;;;6173033;23;20431;-79
2021/01/17 12:50:16;;;;;;;35.63;30.03;;;1.80;99.90;;;;;;6208827;23;20899;-79
2021/01/17 12:52:44;;;;;;;37.10;31.50;;;1.80;99.90;;;;;;6171221;23;20408;-79
2021/01/17 12:55:12;;;;;;;35.55;29.38;;;1.80;99.90;;;;;;6171541;23;20776;-79